createdAt,value
2022-11-06T00:03:30.543Z,15.70
2022-11-06T00:08:41.166Z,16.15
2022-11-06T00:13:44.122Z,17.88
2022-11-06T00:18:47.760Z,14.18
2022-11-06T00:23:51.594Z,14.77
2022-11-06T00:28:54.681Z,15.13
2022-11-06T00:33:59.558Z,16.40
2022-11-06T00:39:02.419Z,15.38
2022-11-06T00:44:05.416Z,14.82
2022-11-06T00:49:08.107Z,16.55
2022-11-06T00:54:12.438Z,16.67
2022-11-06T01:04:23.072Z,15.30
2022-11-06T01:09:28.533Z,15.75
2022-11-06T01:14:31.155Z,12.77
2022-11-06T01:19:33.910Z,11.80
2022-11-06T01:24:36.724Z,12.52
2022-11-06T01:29:39.398Z,12.25
2022-11-06T01:34:42.109Z,11.40
2022-11-06T01:39:44.831Z,13.38
2022-11-06T01:45:18.495Z,12.52
2022-11-06T01:50:21.283Z,13.18
2022-11-06T01:55:35.682Z,14.25
2022-11-06T02:00:38.557Z,15.65
2022-11-06T02:05:42.419Z,16.58
2022-11-06T02:10:46.231Z,16.88
2022-11-06T02:16:01.033Z,17.85
2022-11-06T02:21:15.456Z,15.65
2022-11-06T02:26:49.901Z,15.68
2022-11-06T02:31:56.206Z,15.35
2022-11-06T02:37:08.060Z,14.77
2022-11-06T02:42:12.959Z,16.60
2022-11-06T02:47:19.374Z,16.67
2022-11-06T02:52:40.404Z,13.48
2022-11-06T02:57:52.431Z,11.43
2022-11-06T03:03:06.698Z,11.52
2022-11-06T03:08:21.991Z,14.93
2022-11-06T03:13:35.199Z,11.65
2022-11-06T03:19:02.805Z,11.35
2022-11-06T03:24:17.898Z,11.55
2022-11-06T03:29:40.967Z,12.70
2022-11-06T03:34:53.743Z,11.35
2022-11-06T03:40:01.830Z,11.48
2022-11-06T03:45:13.467Z,15.85
2022-11-06T03:50:32.638Z,11.70
2022-11-06T03:55:51.219Z,12.38
2022-11-06T04:00:56.841Z,12.70
2022-11-06T04:06:21.068Z,11.68
2022-11-06T04:11:46.381Z,14.18
2022-11-06T04:16:56.592Z,12.45
2022-11-06T04:22:11.019Z,13.55
2022-11-06T04:27:37.472Z,12.43
2022-11-06T04:33:01.058Z,14.77
2022-11-06T04:38:21.534Z,13.85
2022-11-06T04:43:42.928Z,15.60
2022-11-06T04:48:47.010Z,14.23
2022-11-06T04:53:52.878Z,16.33
2022-11-06T04:58:55.590Z,15.93
2022-11-06T05:03:58.808Z,18.70
2022-11-06T05:09:02.087Z,19.23
2022-11-06T05:14:04.826Z,18.80
2022-11-06T05:19:08.010Z,20.05
2022-11-06T05:24:11.152Z,23.10
2022-11-06T05:29:15.660Z,22.55
2022-11-06T05:34:18.297Z,20.88
2022-11-06T05:39:21.029Z,20.17
2022-11-06T05:44:23.903Z,19.77
2022-11-06T05:49:26.545Z,26.05
2022-11-06T05:54:29.213Z,20.40
2022-11-06T05:59:31.802Z,21.27
2022-11-06T06:04:34.471Z,25.52
2022-11-06T06:09:37.883Z,22.60
2022-11-06T06:14:40.906Z,24.60
2022-11-06T06:19:43.548Z,19.45
2022-11-06T06:24:46.199Z,23.25
2022-11-06T06:29:48.781Z,21.50
2022-11-06T06:34:51.405Z,20.67
2022-11-06T06:39:54.007Z,25.83
2022-11-06T06:44:56.707Z,24.63
2022-11-06T06:49:59.335Z,23.33
2022-11-06T06:55:01.944Z,23.73
2022-11-06T07:00:08.693Z,22.38
2022-11-06T07:05:11.325Z,21.13
2022-11-06T07:10:14.660Z,23.08
2022-11-06T07:15:17.599Z,24.33
2022-11-06T07:20:20.159Z,24.02
2022-11-06T07:25:22.863Z,18.50
2022-11-06T07:30:25.950Z,18.48
2022-11-06T07:35:29.534Z,22.95
2022-11-06T07:40:33.861Z,18.80
2022-11-06T07:45:37.530Z,22.33
2022-11-06T07:50:40.147Z,19.33
2022-11-06T07:55:56.247Z,23.73
2022-11-06T08:00:59.186Z,19.58
2022-11-06T08:06:05.284Z,21.60
2022-11-06T08:11:10.908Z,20.83
2022-11-06T08:16:15.259Z,21.58
2022-11-06T08:21:17.881Z,21.40
2022-11-06T08:26:20.750Z,22.35
2022-11-06T08:31:24.344Z,22.80
2022-11-06T08:36:26.980Z,23.85
2022-11-06T08:41:29.657Z,21.85
2022-11-06T08:46:32.758Z,25.33
2022-11-06T08:51:35.353Z,26.50
2022-11-06T08:56:38.011Z,25.50
2022-11-06T09:01:40.698Z,27.88
2022-11-06T09:06:43.464Z,21.40
2022-11-06T09:11:46.268Z,18.02
2022-11-06T09:16:48.872Z,20.80
2022-11-06T09:21:54.735Z,22.40
2022-11-06T09:26:57.679Z,22.58
2022-11-06T09:32:00.299Z,22.52
2022-11-06T09:37:03.659Z,25.95
2022-11-06T09:42:23.534Z,24.23
2022-11-06T09:47:30.933Z,20.10
2022-11-06T09:52:37.205Z,26.63
2022-11-06T09:58:06.020Z,21.83
2022-11-06T10:03:26.583Z,20.42
2022-11-06T10:08:30.891Z,25.25
2022-11-06T10:13:57.908Z,19.70
2022-11-06T10:19:00.344Z,20.98
2022-11-06T10:24:16.222Z,22.08
2022-11-06T10:29:46.774Z,20.48
2022-11-06T10:35:04.050Z,21.20
2022-11-06T10:40:14.503Z,20.02
2022-11-06T10:45:18.329Z,24.30
2022-11-06T10:50:23.628Z,18.77
2022-11-06T10:55:39.906Z,16.42
2022-11-06T11:00:43.112Z,20.52
2022-11-06T11:05:45.804Z,17.90
2022-11-06T11:11:04.226Z,19.90
2022-11-06T11:16:37.540Z,17.15
2022-11-06T11:22:12.411Z,18.38
2022-11-06T11:27:15.133Z,17.45
2022-11-06T11:32:21.347Z,16.50
2022-11-06T11:37:36.145Z,19.38
2022-11-06T11:42:38.871Z,17.08
2022-11-06T11:47:46.014Z,17.58
2022-11-06T11:52:53.623Z,15.43
2022-11-06T11:57:59.584Z,21.85
2022-11-06T12:03:07.327Z,19.33
2022-11-06T12:08:26.277Z,15.38
2022-11-06T12:13:28.985Z,17.15
2022-11-06T12:18:39.349Z,14.32
2022-11-06T12:24:03.873Z,16.50
2022-11-06T12:29:10.448Z,19.95
2022-11-06T12:35:00.944Z,16.25
2022-11-06T12:40:24.804Z,20.10
2022-11-06T12:45:44.162Z,18.05
2022-11-06T12:51:01.422Z,19.15
2022-11-06T12:56:32.484Z,17.27
2022-11-06T13:01:47.689Z,18.77
2022-11-06T13:07:01.876Z,15.40
2022-11-06T13:12:24.811Z,16.35
2022-11-06T13:17:53.794Z,16.65
2022-11-06T13:23:12.226Z,15.68
2022-11-06T13:28:25.037Z,15.27
2022-11-06T13:33:36.725Z,13.88
2022-11-06T13:39:00.276Z,16.88
2022-11-06T13:44:05.967Z,15.05
2022-11-06T13:49:11.387Z,9.60
2022-11-06T13:54:51.512Z,11.85
2022-11-06T14:00:23.706Z,12.48
2022-11-06T14:11:03.856Z,11.02
2022-11-06T14:16:21.901Z,10.18
2022-11-06T14:21:36.434Z,10.43
2022-11-06T14:26:50.697Z,12.75
2022-11-06T14:32:11.443Z,11.73
2022-11-06T14:37:20.284Z,13.75
2022-11-06T14:42:30.362Z,9.85
2022-11-06T14:47:40.284Z,13.23
2022-11-06T14:52:52.440Z,11.23
2022-11-06T14:57:59.115Z,9.68
2022-11-06T15:03:05.168Z,10.90
2022-11-06T15:08:08.272Z,10.82
2022-11-06T15:13:17.906Z,10.18
2022-11-06T15:18:23.251Z,12.43
2022-11-06T15:23:37.623Z,12.60
2022-11-06T15:28:48.939Z,11.90
2022-11-06T15:34:14.202Z,12.27
2022-11-06T15:39:40.540Z,10.65
2022-11-06T15:44:45.394Z,12.13
2022-11-06T15:49:48.308Z,14.27
2022-11-06T15:54:56.698Z,14.27
2022-11-06T16:00:17.646Z,38.30
2022-11-06T16:05:22.422Z,20.23
2022-11-06T16:10:26.667Z,13.35
2022-11-06T16:15:50.723Z,17.10
2022-11-06T16:21:01.068Z,15.93
2022-11-06T16:26:06.566Z,13.43
2022-11-06T16:31:13.971Z,14.77
2022-11-06T16:36:16.980Z,18.45
2022-11-06T16:41:57.606Z,13.65
2022-11-06T16:47:15.770Z,16.95
2022-11-06T16:52:35.861Z,13.45
2022-11-06T16:57:59.683Z,14.73
2022-11-06T17:03:08.831Z,14.70
2022-11-06T17:08:36.119Z,12.52
2022-11-06T17:13:42.283Z,17.10
2022-11-06T17:18:48.257Z,14.90
2022-11-06T17:23:53.013Z,14.75
2022-11-06T17:28:57.528Z,14.98
2022-11-06T17:34:03.147Z,14.13
2022-11-06T17:39:06.663Z,14.23
2022-11-06T17:44:12.357Z,14.07
2022-11-06T17:49:18.482Z,17.38
2022-11-06T17:54:26.966Z,15.48
2022-11-06T17:59:30.778Z,16.52
2022-11-06T18:04:37.591Z,15.75
2022-11-06T18:09:40.430Z,19.15
2022-11-06T18:14:43.335Z,16.15
2022-11-06T18:19:46.306Z,19.80
2022-11-06T18:24:49.712Z,29.95
2022-11-06T18:29:52.509Z,19.40
2022-11-06T18:34:55.242Z,17.50
2022-11-06T18:39:58.735Z,17.90
2022-11-06T18:45:01.542Z,18.90
2022-11-06T18:50:06.502Z,22.40
2022-11-06T18:55:09.715Z,20.10
2022-11-06T19:00:13.509Z,19.55
2022-11-06T19:05:19.254Z,21.65
2022-11-06T19:10:21.971Z,22.88
2022-11-06T19:15:24.917Z,21.65
2022-11-06T19:20:30.811Z,20.15
2022-11-06T19:25:34.151Z,23.40
2022-11-06T19:30:37.587Z,22.10
2022-11-06T19:35:40.248Z,21.00
2022-11-06T19:40:43.403Z,19.15
2022-11-06T19:45:46.251Z,21.45
2022-11-06T19:50:59.610Z,17.13
2022-11-06T19:56:10.361Z,18.77
2022-11-06T20:01:13.689Z,16.20
2022-11-06T20:06:17.006Z,16.80
2022-11-06T20:11:19.841Z,19.65
2022-11-06T20:16:22.558Z,15.85
2022-11-06T20:21:28.214Z,16.02
2022-11-06T20:26:30.919Z,19.70
2022-11-06T20:31:33.615Z,17.67
2022-11-06T20:36:36.433Z,13.63
2022-11-06T20:41:39.706Z,16.40
2022-11-06T20:46:43.614Z,13.27
2022-11-06T20:52:12.877Z,12.93
2022-11-06T20:57:11.692Z,14.70
2022-11-06T21:02:14.490Z,15.93
2022-11-06T21:07:17.175Z,14.52
2022-11-06T21:12:19.923Z,14.68
2022-11-06T21:17:22.619Z,16.73
2022-11-06T21:22:25.265Z,15.35
2022-11-06T21:27:27.917Z,15.20
2022-11-06T21:32:30.820Z,13.07
2022-11-06T21:37:33.437Z,15.25
2022-11-06T21:42:36.629Z,13.50
2022-11-06T21:47:39.226Z,13.13
2022-11-06T21:53:00.845Z,15.10
2022-11-06T21:58:03.463Z,14.15
2022-11-06T22:03:06.172Z,13.20
2022-11-06T22:08:08.947Z,16.23
2022-11-06T22:13:11.812Z,15.13
2022-11-06T22:18:15.328Z,14.43
2022-11-06T22:23:18.219Z,14.48
2022-11-06T22:28:20.774Z,15.15
2022-11-06T22:33:23.380Z,14.07
2022-11-06T22:38:26.818Z,15.50
2022-11-06T22:43:31.788Z,14.50
2022-11-06T22:48:34.635Z,15.15
2022-11-06T22:53:37.323Z,15.80
2022-11-06T22:58:41.371Z,17.48
2022-11-06T23:03:44.017Z,16.50
2022-11-06T23:08:47.360Z,21.15
2022-11-06T23:13:50.686Z,17.45
2022-11-06T23:18:53.468Z,18.40
2022-11-06T23:23:56.144Z,16.83
2022-11-06T23:28:58.991Z,20.83
2022-11-06T23:34:01.554Z,19.52
2022-11-06T23:39:05.456Z,19.17
2022-11-06T23:44:32.315Z,18.73
2022-11-06T23:49:35.387Z,20.35
2022-11-06T23:54:37.903Z,17.67
2022-11-06T23:59:40.850Z,19.23
